»·PEaware :: N256Z KPVU-CYQR

N256Z :: KPVU-CYQR

FLIGHT INFORMATION

Flight Status: Arrived
Operator: Privately registered:
United States
More flights under this callsign
Pilot: Gregory A. (9731)
Aircraft: PIPER PA-46-500TP MALIBU MERIDIAN
(P46T)
More flights by this aircraft type
Origin: KPVU Provo Mun
United States
Destination: CYQR Regina
Canada
More flights between these airports :: More routes between these airports
Route: +PROVO4 FFU J9 TCH J713 BPI FLAYT EENID NORAB GORAK GORAK2
File this flight plan on PilotEdge
Remarks: Jet Prop = Malibu conversion to turbine - performance similar to Meridian
Altitude:
(Current/Filed)
270ft
Speed:
(Current/Filed)
264kts
Departed: 29-Nov-19 12:32 PM
Arrived: 29-Nov-19 03:36 PM
Distance/Time
Traveled:
681nm/3:04
Distance/Time
To Go:
Arrived

Flight Plot

Page will automatically refresh every two minutes.

Flight plan parsing failed; only flown route is shown


Map Options




Map Legend


Flown Route
Filed Route
Departure Airport
Arrival Airport
Navaid (VOR, NDB)
Fix

Horizontal Profiles

Position Reports

Time Latitude Longitude Heading Altitude Ground
Speed
29-Nov-19 12:00 40.217555 -111.718376 326 4501ft 0kts
29-Nov-19 12:01 40.217555 -111.718376 326 4501ft 0kts
29-Nov-19 12:02 40.217555 -111.718376 326 4501ft 0kts
29-Nov-19 12:03 40.217556 -111.718377 326 4501ft 0kts
29-Nov-19 12:04 40.217557 -111.718379 326 4501ft 0kts
29-Nov-19 12:05 40.217559 -111.718380 326 4501ft 0kts
29-Nov-19 12:06 40.217561 -111.718382 326 4501ft 0kts
29-Nov-19 12:07 40.217563 -111.718384 326 4501ft 0kts
29-Nov-19 12:08 40.217565 -111.718385 326 4501ft 0kts
29-Nov-19 12:09 40.217567 -111.718387 326 4501ft 0kts
29-Nov-19 12:10 40.217569 -111.718388 326 4501ft 0kts
29-Nov-19 12:11 40.217571 -111.718390 326 4501ft 0kts
29-Nov-19 12:12 40.217573 -111.718392 326 4501ft 0kts
29-Nov-19 12:13 40.217575 -111.718393 326 4501ft 0kts
29-Nov-19 12:14 40.217577 -111.718395 326 4501ft 0kts
29-Nov-19 12:15 40.217579 -111.718397 326 4501ft 0kts
29-Nov-19 12:16 40.217581 -111.718398 326 4501ft 0kts
29-Nov-19 12:17 40.217583 -111.718400 326 4501ft 0kts
29-Nov-19 12:18 40.217585 -111.718402 326 4501ft 0kts
29-Nov-19 12:19 40.217586 -111.718403 326 4501ft 0kts
29-Nov-19 12:20 40.217588 -111.718405 326 4501ft 0kts
29-Nov-19 12:21 40.217590 -111.718407 326 4501ft 0kts
29-Nov-19 12:22 40.218690 -111.719811 322 4501ft 0kts
29-Nov-19 12:23 40.219846 -111.720379 14 4501ft 0kts
29-Nov-19 12:24 40.219849 -111.720378 14 4501ft 0kts
29-Nov-19 12:25 40.220154 -111.720299 9 4501ft 0kts
29-Nov-19 12:26 40.220157 -111.720298 9 4501ft 0kts
29-Nov-19 12:27 40.224367 -111.719202 11 4501ft 22kts
29-Nov-19 12:28 40.225829 -111.719937 327 4501ft 0kts
29-Nov-19 12:29 40.225831 -111.719939 326 4501ft 0kts
29-Nov-19 12:30 40.226120 -111.720605 186 4501ft 4kts
29-Nov-19 12:31 40.207892 -111.725959 200 4619ft 134kts
29-Nov-19 12:32 40.192781 -111.777630 256 6333ft 183kts
29-Nov-19 12:33 40.173310 -111.842113 243 7950ft 199kts
29-Nov-19 12:34 40.149083 -111.906210 243 9535ft 187kts
29-Nov-19 12:35 40.172658 -111.945610 13 9866ft 185kts
29-Nov-19 12:36 40.222386 -111.936711 357 11224ft 180kts
29-Nov-19 12:37 40.276402 -111.940569 354 12853ft 208kts
29-Nov-19 12:38 40.334714 -111.944927 354 14967ft 204kts
29-Nov-19 12:39 40.390961 -111.949100 354 17347ft 201kts
29-Nov-19 12:40 40.436843 -111.952136 351 19432ft 170kts
29-Nov-19 12:41 40.477875 -111.955187 346 21673ft 116kts
29-Nov-19 12:42 40.513025 -111.952261 19 22114ft 158kts
29-Nov-19 12:43 40.562823 -111.959836 348 23107ft 220kts
29-Nov-19 12:44 40.626241 -111.965901 351 24487ft 228kts
29-Nov-19 12:45 40.688861 -111.970509 350 26074ft 224kts
29-Nov-19 12:46 40.751059 -111.975090 350 27208ft 234kts
29-Nov-19 12:47 40.821161 -111.979961 355 27312ft 268kts
29-Nov-19 12:48 40.890447 -111.936145 32 27322ft 285kts
29-Nov-19 12:49 40.954151 -111.872758 35 27338ft 287kts
29-Nov-19 12:50 41.017292 -111.807159 36 27345ft 289kts
29-Nov-19 12:51 41.080605 -111.740663 36 27268ft 290kts
29-Nov-19 12:52 41.143637 -111.674107 36 27275ft 289kts
29-Nov-19 12:53 41.206696 -111.607304 36 27288ft 289kts
29-Nov-19 12:54 41.269371 -111.540680 36 27317ft 289kts
29-Nov-19 12:55 41.332338 -111.473656 36 27350ft 289kts
29-Nov-19 12:56 41.395220 -111.406530 36 27364ft 290kts
29-Nov-19 12:57 41.458207 -111.339106 36 27373ft 291kts
29-Nov-19 12:58 41.521394 -111.271288 36 27377ft 290kts
29-Nov-19 12:59 41.584253 -111.203646 36 27374ft 290kts
29-Nov-19 13:00 41.647055 -111.135891 36 27376ft 290kts
29-Nov-19 13:01 41.709963 -111.067847 36 27384ft 290kts
29-Nov-19 13:02 41.772491 -111.000037 36 27407ft 289kts
29-Nov-19 13:03 41.834771 -110.932321 36 27442ft 288kts
29-Nov-19 13:04 41.897269 -110.864195 36 27443ft 289kts
29-Nov-19 13:05 41.959568 -110.796100 36 27444ft 289kts
29-Nov-19 13:06 42.022048 -110.727625 36 27443ft 289kts
29-Nov-19 13:07 42.084485 -110.659036 36 27440ft 290kts
29-Nov-19 13:08 42.146854 -110.590304 36 27436ft 290kts
29-Nov-19 13:09 42.209151 -110.521429 36 27429ft 290kts
29-Nov-19 13:10 42.271626 -110.452286 36 27424ft 289kts
29-Nov-19 13:11 42.333710 -110.383403 36 27421ft 289kts
29-Nov-19 13:12 42.395899 -110.314201 36 27419ft 289kts
29-Nov-19 13:13 42.457823 -110.245114 36 27420ft 289kts
29-Nov-19 13:14 42.519726 -110.175899 36 27420ft 289kts
29-Nov-19 13:15 42.583810 -110.109937 28 27421ft 287kts
29-Nov-19 13:16 42.652066 -110.053826 26 27421ft 287kts
29-Nov-19 13:17 42.721171 -109.999470 26 27424ft 287kts
29-Nov-19 13:18 42.790647 -109.945260 25 27428ft 287kts
29-Nov-19 13:19 42.859857 -109.891295 25 27428ft 287kts
29-Nov-19 13:20 42.929394 -109.836993 25 27427ft 287kts
29-Nov-19 13:21 42.998828 -109.782641 25 27417ft 288kts
29-Nov-19 13:22 43.068430 -109.728013 25 27402ft 289kts
29-Nov-19 13:23 43.138334 -109.672979 25 27392ft 289kts
29-Nov-19 13:24 43.208134 -109.617908 25 27379ft 290kts
29-Nov-19 13:25 43.278004 -109.562652 25 27365ft 290kts
29-Nov-19 13:26 43.348087 -109.507068 25 27353ft 290kts
29-Nov-19 13:27 43.417919 -109.451532 25 27342ft 290kts
29-Nov-19 13:28 43.487737 -109.395856 26 27331ft 290kts
29-Nov-19 13:29 43.557938 -109.339728 26 27321ft 291kts
29-Nov-19 13:30 43.627963 -109.283577 26 27310ft 291kts
29-Nov-19 13:31 43.698174 -109.227123 26 27300ft 291kts
29-Nov-19 13:33 43.768116 -109.170738 26 27290ft 291kts
29-Nov-19 13:34 43.838277 -109.114023 26 27278ft 291kts
29-Nov-19 13:35 43.908157 -109.057360 26 27267ft 291kts
29-Nov-19 13:36 43.978046 -109.000567 26 27236ft 292kts
29-Nov-19 13:37 44.048507 -108.943137 26 27186ft 293kts
29-Nov-19 13:38 44.118771 -108.885693 26 27183ft 293kts
29-Nov-19 13:39 44.188988 -108.828132 26 27181ft 293kts
29-Nov-19 13:40 44.259423 -108.770217 26 27169ft 293kts
29-Nov-19 13:41 44.329648 -108.712326 26 27162ft 293kts
29-Nov-19 13:42 44.399860 -108.654297 26 27158ft 293kts
29-Nov-19 13:43 44.470338 -108.595878 26 27152ft 294kts
29-Nov-19 13:44 44.540616 -108.537457 26 27143ft 294kts
29-Nov-19 13:45 44.611048 -108.478739 26 27143ft 294kts
29-Nov-19 13:46 44.681232 -108.420069 26 27140ft 294kts
29-Nov-19 13:47 44.751480 -108.361180 26 27139ft 294kts
29-Nov-19 13:48 44.822045 -108.301858 26 27140ft 295kts
29-Nov-19 13:49 44.892397 -108.242542 26 27131ft 295kts
29-Nov-19 13:50 44.962752 -108.183066 26 27123ft 295kts
29-Nov-19 13:51 45.033343 -108.123232 26 27119ft 295kts
29-Nov-19 13:52 45.103754 -108.063375 26 27096ft 296kts
29-Nov-19 13:52 45.162612 -108.013255 26 27077ft 296kts
29-Nov-19 13:54 45.245083 -107.942866 25 27072ft 295kts
29-Nov-19 13:55 45.315402 -107.882828 25 27068ft 295kts
29-Nov-19 13:55 45.374083 -107.832808 26 27066ft 295kts
29-Nov-19 13:56 45.444645 -107.772014 26 27063ft 296kts
29-Nov-19 13:58 45.526888 -107.701704 25 27060ft 296kts
29-Nov-19 13:58 45.585964 -107.651299 25 27058ft 296kts
29-Nov-19 13:59 45.656612 -107.590972 25 27055ft 296kts
29-Nov-19 14:00 45.727243 -107.530509 25 27052ft 296kts
29-Nov-19 14:01 45.798038 -107.469739 25 27049ft 296kts
29-Nov-19 14:02 45.868551 -107.409037 25 27037ft 296kts
29-Nov-19 14:03 45.939071 -107.348142 26 27033ft 295kts
29-Nov-19 14:04 46.009576 -107.287087 25 27027ft 295kts
29-Nov-19 14:05 46.079782 -107.226119 25 27008ft 295kts
29-Nov-19 14:06 46.149811 -107.165118 25 26998ft 294kts
29-Nov-19 14:07 46.219752 -107.104032 26 26990ft 293kts
29-Nov-19 14:08 46.289259 -107.043154 26 26980ft 292kts
29-Nov-19 14:09 46.348200 -106.991400 26 26973ft 291kts
29-Nov-19 14:10 46.415801 -106.931880 26 26972ft 290kts
29-Nov-19 14:11 46.484733 -106.871045 26 26946ft 290kts
29-Nov-19 14:12 46.553579 -106.810127 26 26942ft 289kts
29-Nov-19 14:13 46.622473 -106.749057 26 26940ft 289kts
29-Nov-19 14:14 46.691054 -106.688221 26 26937ft 289kts
29-Nov-19 14:15 46.759898 -106.627359 25 26934ft 288kts
29-Nov-19 14:16 46.827624 -106.564490 27 26931ft 289kts
29-Nov-19 14:17 46.895026 -106.500512 27 26928ft 289kts
29-Nov-19 14:18 46.962765 -106.436446 27 26925ft 289kts
29-Nov-19 14:19 47.030265 -106.372581 27 26922ft 289kts
29-Nov-19 14:20 47.097721 -106.308614 27 26920ft 289kts
29-Nov-19 14:21 47.165325 -106.244338 27 26917ft 289kts
29-Nov-19 14:22 47.232834 -106.179946 27 26915ft 289kts
29-Nov-19 14:23 47.300299 -106.115397 27 26913ft 289kts
29-Nov-19 14:24 47.367979 -106.050450 27 26900ft 290kts
29-Nov-19 14:25 47.435417 -105.985520 27 26895ft 289kts
29-Nov-19 14:26 47.502843 -105.920423 27 26890ft 288kts
29-Nov-19 14:27 47.569977 -105.855413 27 26888ft 288kts
29-Nov-19 14:28 47.636902 -105.790398 27 26886ft 287kts
29-Nov-19 14:29 47.704120 -105.724907 27 26603ft 288kts
29-Nov-19 14:30 47.770409 -105.660098 27 26046ft 284kts
29-Nov-19 14:31 47.836357 -105.595506 28 25489ft 284kts
29-Nov-19 14:32 47.902616 -105.530365 28 24845ft 287kts
29-Nov-19 14:33 47.968140 -105.465636 28 23847ft 275kts
29-Nov-19 14:34 48.031067 -105.403634 28 22847ft 269kts
29-Nov-19 14:35 48.093247 -105.342188 28 21999ft 267kts
29-Nov-19 14:36 48.155333 -105.280478 29 21201ft 268kts
29-Nov-19 14:37 48.216547 -105.219350 28 20437ft 255kts
29-Nov-19 14:38 48.274670 -105.161564 28 19732ft 248kts
29-Nov-19 14:39 48.332481 -105.103796 29 19035ft 251kts
29-Nov-19 14:40 48.390607 -105.045294 29 18338ft 252kts
29-Nov-19 14:41 48.449004 -104.986318 29 17637ft 252kts
29-Nov-19 14:42 48.506222 -104.928447 29 16935ft 244kts
29-Nov-19 14:43 48.562513 -104.871514 30 16234ft 242kts
29-Nov-19 14:44 48.598959 -104.834521 30 15778ft 242kts
29-Nov-19 14:45 48.654821 -104.777614 30 15089ft 242kts
29-Nov-19 14:46 48.709340 -104.722033 30 14912ft 226kts
29-Nov-19 14:47 48.759822 -104.670914 30 14914ft 213kts
29-Nov-19 14:48 48.808723 -104.621046 29 14925ft 216kts
29-Nov-19 14:49 48.862903 -104.564880 31 14932ft 238kts
29-Nov-19 14:50 48.916759 -104.509042 30 14936ft 232kts
29-Nov-19 14:51 48.969895 -104.454217 31 14933ft 230kts
29-Nov-19 14:52 49.023692 -104.398644 31 14890ft 235kts
29-Nov-19 14:53 49.077952 -104.342102 31 14269ft 233kts
29-Nov-19 14:54 49.130224 -104.287987 31 13637ft 222kts
29-Nov-19 14:55 49.180824 -104.235713 31 13001ft 216kts
29-Nov-19 14:56 49.230649 -104.184729 31 12374ft 215kts
29-Nov-19 14:57 49.287100 -104.159480 6 11759ft 211kts
29-Nov-19 14:58 49.345322 -104.147994 3 11129ft 211kts
29-Nov-19 14:59 49.404082 -104.138147 4 10501ft 213kts
29-Nov-19 15:00 49.463348 -104.128493 4 9954ft 211kts
29-Nov-19 15:01 49.521165 -104.119313 4 9934ft 213kts
29-Nov-19 15:02 49.580462 -104.109612 4 9931ft 216kts
29-Nov-19 15:03 49.641483 -104.099643 4 9930ft 223kts
29-Nov-19 15:04 49.702450 -104.089526 4 9927ft 212kts
29-Nov-19 15:05 49.760597 -104.080473 4 9926ft 213kts
29-Nov-19 15:06 49.821131 -104.070536 4 9923ft 221kts
29-Nov-19 15:07 49.882952 -104.060454 3 9921ft 220kts
29-Nov-19 15:08 49.940003 -104.051964 4 9906ft 199kts
29-Nov-19 15:09 49.995142 -104.044935 356 9908ft 198kts
29-Nov-19 15:10 50.048542 -104.061258 341 9918ft 195kts
29-Nov-19 15:11 50.100880 -104.085108 339 9913ft 198kts
29-Nov-19 15:12 50.153741 -104.111003 336 9913ft 198kts
29-Nov-19 15:13 50.198711 -104.158408 315 9773ft 200kts
29-Nov-19 15:14 50.241640 -104.216158 313 9257ft 204kts
29-Nov-19 15:15 50.284487 -104.274681 314 8795ft 205kts
29-Nov-19 15:16 50.326910 -104.333415 314 8101ft 200kts
29-Nov-19 15:17 50.356591 -104.375882 313 7605ft 199kts
29-Nov-19 15:18 50.397820 -104.433944 313 6931ft 199kts
29-Nov-19 15:19 50.439247 -104.491882 315 6256ft 200kts
29-Nov-19 15:20 50.480233 -104.548428 313 6000ft 191kts
29-Nov-19 15:21 50.518968 -104.604980 312 5995ft 189kts
29-Nov-19 15:22 50.559188 -104.662204 314 5470ft 197kts
29-Nov-19 15:23 50.599840 -104.720253 314 4855ft 196kts
29-Nov-19 15:24 50.602518 -104.789145 219 4286ft 177kts
29-Nov-19 15:25 50.568500 -104.839486 215 3992ft 156kts
29-Nov-19 15:26 50.563043 -104.899600 273 3982ft 135kts
29-Nov-19 15:27 50.583005 -104.936102 36 3992ft 145kts
29-Nov-19 15:28 50.580842 -104.882659 117 4000ft 130kts
29-Nov-19 15:29 50.561289 -104.836955 139 3994ft 122kts
29-Nov-19 15:30 50.534599 -104.805193 145 3998ft 119kts
29-Nov-19 15:31 50.512586 -104.775783 138 3878ft 110kts
29-Nov-19 15:32 50.491960 -104.745490 138 3359ft 110kts
29-Nov-19 15:33 50.467172 -104.710870 133 2670ft 122kts
29-Nov-19 15:34 50.443801 -104.677782 134 2048ft 101kts
29-Nov-19 15:35 50.434618 -104.662298 53 1898ft 18kts
29-Nov-19 15:36 50.438756 -104.655137 124 1898ft 4kts
29-Nov-19 15:37 50.438775 -104.655177 126 1898ft 0kts

Navigation Log

Ident Type
Flight plan parsing failed, navigation log unavailable